createdAt,value
2022-12-08T00:00:47.495Z,1.50
2022-12-08T00:03:51.021Z,1.57
2022-12-08T00:07:11.931Z,1.59
2022-12-08T00:10:47.397Z,1.62
2022-12-08T00:13:37.983Z,1.66
2022-12-08T00:16:42.356Z,1.68
2022-12-08T00:19:45.948Z,1.70
2022-12-08T00:22:48.727Z,1.75
2022-12-08T00:25:51.897Z,1.80
2022-12-08T00:28:57.171Z,1.87
2022-12-08T00:32:01.656Z,1.81
2022-12-08T00:35:06.977Z,1.82
2022-12-08T00:38:09.940Z,1.71
2022-12-08T00:41:15.289Z,1.74
2022-12-08T00:44:20.072Z,1.70
2022-12-08T00:47:27.630Z,1.59
2022-12-08T00:50:30.363Z,1.46
2022-12-08T00:53:33.169Z,1.38
2022-12-08T00:56:36.557Z,1.39
2022-12-08T00:59:39.402Z,1.35
2022-12-08T01:02:43.781Z,1.30
2022-12-08T01:05:46.652Z,1.28
2022-12-08T01:08:49.723Z,1.20
2022-12-08T01:11:52.693Z,1.25
2022-12-08T01:15:00.621Z,1.17
2022-12-08T01:18:07.109Z,1.11
2022-12-08T01:21:10.048Z,1.08
2022-12-08T01:24:14.484Z,1.23
2022-12-08T01:27:17.845Z,1.12
2022-12-08T01:30:21.425Z,1.08
2022-12-08T01:33:26.117Z,1.03
2022-12-08T01:36:30.520Z,0.99
2022-12-08T01:39:33.555Z,0.92
2022-12-08T01:42:38.372Z,0.93
2022-12-08T01:45:43.103Z,0.90
2022-12-08T01:48:47.809Z,0.86
2022-12-08T01:51:56.294Z,0.84
2022-12-08T01:55:03.702Z,0.83
2022-12-08T01:58:16.323Z,0.80
2022-12-08T02:01:19.364Z,0.77
2022-12-08T02:04:23.736Z,0.76
2022-12-08T02:07:26.852Z,0.76
2022-12-08T02:10:32.218Z,0.69
2022-12-08T02:13:37.488Z,0.59
2022-12-08T02:16:46.862Z,0.56
2022-12-08T02:20:14.801Z,0.54
2022-12-08T02:23:25.233Z,0.54
2022-12-08T02:27:08.923Z,0.53
2022-12-08T02:30:23.014Z,0.57
2022-12-08T02:33:54.541Z,0.51
2022-12-08T02:37:06.929Z,0.58
2022-12-08T02:40:19.885Z,0.60
2022-12-08T02:43:30.708Z,0.53
2022-12-08T02:46:36.684Z,0.42
2022-12-08T02:49:41.784Z,0.37
2022-12-08T02:52:46.550Z,0.37
2022-12-08T02:55:59.060Z,0.34
2022-12-08T02:59:19.071Z,0.25
2022-12-08T03:02:41.868Z,0.27
2022-12-08T03:06:02.546Z,0.25
2022-12-08T03:09:11.610Z,0.26
2022-12-08T03:12:19.998Z,0.23
2022-12-08T03:15:23.315Z,0.20
2022-12-08T03:18:34.783Z,0.25
2022-12-08T03:21:41.358Z,0.23
2022-12-08T03:24:47.938Z,0.24
2022-12-08T03:27:52.668Z,0.22
2022-12-08T03:30:59.386Z,0.16
2022-12-08T03:34:03.886Z,0.23
2022-12-08T03:37:10.444Z,0.21
2022-12-08T03:40:16.246Z,0.13
2022-12-08T03:43:19.173Z,0.07
2022-12-08T03:49:26.031Z,-0.08
2022-12-08T03:52:30.652Z,-0.17
2022-12-08T03:55:33.353Z,-0.20
2022-12-08T03:58:37.659Z,-0.20
2022-12-08T04:01:40.874Z,-0.25
2022-12-08T04:04:44.191Z,-0.13
2022-12-08T04:07:48.347Z,-0.16
2022-12-08T04:10:51.074Z,-0.19
2022-12-08T04:13:54.437Z,-0.26
2022-12-08T04:16:57.291Z,-0.30
2022-12-08T04:20:00.186Z,-0.34
2022-12-08T04:23:04.558Z,-0.32
2022-12-08T04:26:08.321Z,-0.32
2022-12-08T04:29:11.160Z,-0.34
2022-12-08T04:32:13.998Z,-0.39
2022-12-08T04:35:17.305Z,-0.42
2022-12-08T04:38:21.541Z,-0.46
2022-12-08T04:41:24.473Z,-0.48
2022-12-08T04:44:29.979Z,-0.54
2022-12-08T04:47:36.120Z,-0.53
2022-12-08T04:50:40.789Z,-0.47
2022-12-08T04:53:46.849Z,-0.49
2022-12-08T04:56:49.862Z,-0.57
2022-12-08T04:59:52.846Z,-0.56
2022-12-08T05:02:55.701Z,-0.53
2022-12-08T05:06:00.707Z,-0.56
2022-12-08T05:09:05.211Z,-0.56
2022-12-08T05:12:08.595Z,-0.59
2022-12-08T05:15:11.797Z,-0.61
2022-12-08T05:18:15.800Z,-0.68
2022-12-08T05:21:18.590Z,-0.72
2022-12-08T05:24:23.019Z,-0.75
2022-12-08T05:27:25.925Z,-0.79
2022-12-08T05:30:29.607Z,-0.85
2022-12-08T05:33:32.748Z,-0.81
2022-12-08T05:36:35.688Z,-0.86
2022-12-08T05:39:40.310Z,-0.87
2022-12-08T05:42:43.573Z,-0.89
2022-12-08T05:45:47.109Z,-0.92
2022-12-08T05:48:49.979Z,-0.94
2022-12-08T05:51:55.495Z,-0.88
2022-12-08T05:54:59.819Z,-0.90
2022-12-08T05:58:07.608Z,-0.92
2022-12-08T06:01:20.037Z,-0.94
2022-12-08T06:04:23.350Z,-0.86
2022-12-08T06:07:26.234Z,-0.83
2022-12-08T06:10:31.293Z,-0.84
2022-12-08T06:13:34.061Z,-0.94
2022-12-08T06:16:37.586Z,-0.92
2022-12-08T06:19:42.017Z,-0.89
2022-12-08T06:22:44.934Z,-0.95
2022-12-08T06:25:49.268Z,-0.95
2022-12-08T06:28:54.657Z,-0.98
2022-12-08T06:31:57.504Z,-0.98
2022-12-08T06:35:00.322Z,-0.97
2022-12-08T06:38:03.164Z,-0.96
2022-12-08T06:41:08.402Z,-1.00
2022-12-08T06:44:11.333Z,-1.00
2022-12-08T06:47:26.315Z,-1.04
2022-12-08T06:50:30.001Z,-1.10
2022-12-08T06:53:32.984Z,-1.11
2022-12-08T06:56:37.206Z,-1.12
2022-12-08T06:59:40.852Z,-1.03
2022-12-08T07:02:43.738Z,-0.98
2022-12-08T07:05:46.537Z,-0.94
2022-12-08T07:08:49.225Z,-0.91
2022-12-08T07:11:53.394Z,-0.93
2022-12-08T07:14:56.215Z,-0.92
2022-12-08T07:18:00.281Z,-0.84
2022-12-08T07:21:08.300Z,-0.80
2022-12-08T07:24:11.521Z,-0.77
2022-12-08T07:27:15.617Z,-0.67
2022-12-08T07:30:18.933Z,-0.64
2022-12-08T07:33:21.713Z,-0.62
2022-12-08T07:36:25.394Z,-0.57
2022-12-08T07:39:30.421Z,-0.50
2022-12-08T07:42:34.824Z,-0.44
2022-12-08T07:45:37.754Z,-0.39
2022-12-08T07:48:40.531Z,-0.35
2022-12-08T07:51:43.362Z,-0.29
2022-12-08T07:54:46.287Z,-0.25
2022-12-08T07:57:51.405Z,-0.24
2022-12-08T08:00:54.532Z,-0.18
2022-12-08T08:04:01.380Z,-0.12
2022-12-08T08:07:07.287Z,-0.09
2022-12-08T08:10:11.405Z,-0.06
2022-12-08T08:13:15.526Z,0.06
2022-12-08T08:16:19.542Z,0.19
2022-12-08T08:19:22.932Z,0.24
2022-12-08T08:22:26.027Z,0.27
2022-12-08T08:25:28.769Z,0.30
2022-12-08T08:28:33.929Z,0.36
2022-12-08T08:31:36.747Z,0.50
2022-12-08T08:34:39.974Z,0.64
2022-12-08T08:37:47.208Z,0.70
2022-12-08T08:40:51.782Z,0.80
2022-12-08T08:43:57.142Z,0.89
2022-12-08T08:47:00.014Z,0.98
2022-12-08T08:50:03.047Z,1.10
2022-12-08T08:53:06.088Z,1.25
2022-12-08T08:56:10.716Z,1.33
2022-12-08T08:59:15.094Z,1.36
2022-12-08T09:02:19.904Z,1.48
2022-12-08T09:05:22.919Z,1.59
2022-12-08T09:08:27.232Z,1.65
2022-12-08T09:11:30.700Z,1.79
2022-12-08T09:14:35.504Z,1.89
2022-12-08T09:17:38.596Z,1.96
2022-12-08T09:20:41.382Z,2.01
2022-12-08T09:23:44.897Z,2.31
2022-12-08T09:26:48.321Z,3.38
2022-12-08T09:29:52.433Z,4.18
2022-12-08T09:32:55.459Z,4.53
2022-12-08T09:35:58.177Z,5.58
2022-12-08T09:39:00.902Z,6.38
2022-12-08T09:42:06.797Z,6.87
2022-12-08T09:45:13.908Z,6.20
2022-12-08T09:48:20.445Z,5.40
2022-12-08T09:51:25.722Z,4.59
2022-12-08T09:54:33.697Z,4.17
2022-12-08T09:57:37.503Z,3.87
2022-12-08T10:00:41.830Z,3.71
2022-12-08T10:03:44.609Z,3.56
2022-12-08T10:06:54.553Z,3.50
2022-12-08T10:10:03.935Z,3.61
2022-12-08T10:13:16.665Z,3.77
2022-12-08T10:16:30.138Z,3.87
2022-12-08T10:19:35.384Z,4.15
2022-12-08T10:22:44.349Z,4.34
2022-12-08T10:25:49.634Z,4.67
2022-12-08T10:28:52.553Z,4.91
2022-12-08T10:31:58.773Z,5.00
2022-12-08T10:35:05.694Z,5.23
2022-12-08T10:38:18.530Z,5.07
2022-12-08T10:41:21.407Z,5.04
2022-12-08T10:44:24.215Z,4.92
2022-12-08T10:47:30.350Z,4.78
2022-12-08T10:50:36.124Z,4.70
2022-12-08T10:53:47.396Z,4.68
2022-12-08T10:56:54.709Z,4.66
2022-12-08T10:59:58.773Z,4.68
2022-12-08T11:03:05.401Z,4.72
2022-12-08T11:06:17.354Z,4.75
2022-12-08T11:09:40.090Z,4.82
2022-12-08T11:12:45.319Z,4.88
2022-12-08T11:15:48.223Z,4.90
2022-12-08T11:18:58.917Z,4.90
2022-12-08T11:22:01.737Z,4.84
2022-12-08T11:25:11.597Z,4.81
2022-12-08T11:28:14.283Z,4.68
2022-12-08T11:31:30.434Z,4.62
2022-12-08T11:34:38.630Z,4.59
2022-12-08T11:37:44.683Z,4.56
2022-12-08T11:40:47.910Z,4.49
2022-12-08T11:43:57.104Z,4.51
2022-12-08T11:47:06.415Z,4.56
2022-12-08T11:50:21.387Z,4.53
2022-12-08T11:53:30.332Z,4.53
2022-12-08T11:56:35.970Z,4.56
2022-12-08T11:59:41.813Z,4.66
2022-12-08T12:02:49.829Z,4.64
2022-12-08T12:06:37.668Z,4.71
2022-12-08T12:09:53.050Z,4.78
2022-12-08T12:13:09.501Z,4.85
2022-12-08T12:16:43.458Z,4.95
2022-12-08T12:19:49.958Z,5.03
2022-12-08T12:23:00.695Z,5.08
2022-12-08T12:26:07.755Z,5.07
2022-12-08T12:29:20.262Z,5.08
2022-12-08T12:32:24.374Z,5.14
2022-12-08T12:35:34.320Z,5.12
2022-12-08T12:38:59.338Z,5.07
2022-12-08T12:42:03.924Z,5.12
2022-12-08T12:45:25.436Z,5.14
2022-12-08T12:48:28.491Z,5.12
2022-12-08T12:51:46.446Z,5.14
2022-12-08T12:55:22.895Z,5.07
2022-12-08T12:58:42.936Z,5.10
2022-12-08T13:01:55.491Z,5.05
2022-12-08T13:05:03.352Z,4.99
2022-12-08T13:08:17.513Z,4.99
2022-12-08T13:11:21.048Z,5.03
2022-12-08T13:14:50.610Z,5.03
2022-12-08T13:17:53.470Z,5.05
2022-12-08T13:21:03.992Z,5.04
2022-12-08T13:24:32.010Z,5.07
2022-12-08T13:27:36.368Z,5.00
2022-12-08T13:30:46.485Z,5.04
2022-12-08T13:33:49.543Z,4.98
2022-12-08T13:37:01.058Z,4.97
2022-12-08T13:40:09.515Z,4.87
2022-12-08T13:43:20.595Z,4.89
2022-12-08T13:54:35.526Z,4.93
2022-12-08T13:57:07.148Z,4.88
2022-12-08T14:00:18.136Z,4.84
2022-12-08T14:03:22.451Z,4.79
2022-12-08T14:06:29.719Z,4.80
2022-12-08T14:09:36.099Z,4.78
2022-12-08T14:12:39.118Z,4.79
2022-12-08T14:15:42.257Z,4.78
2022-12-08T14:18:46.644Z,4.76
2022-12-08T14:21:54.770Z,4.78
2022-12-08T14:24:59.321Z,4.82
2022-12-08T14:28:05.411Z,4.76
2022-12-08T14:31:14.103Z,4.76
2022-12-08T14:34:18.749Z,4.69
2022-12-08T14:37:22.043Z,4.64
2022-12-08T14:40:28.810Z,4.58
2022-12-08T14:43:32.659Z,4.56
2022-12-08T14:46:36.034Z,4.57
2022-12-08T14:49:41.403Z,4.56
2022-12-08T14:52:45.554Z,4.54
2022-12-08T14:55:49.893Z,4.55
2022-12-08T14:59:05.859Z,4.52
2022-12-08T15:02:22.804Z,4.49
2022-12-08T15:05:31.800Z,4.57
2022-12-08T15:08:35.883Z,4.59
2022-12-08T15:11:38.714Z,4.60
2022-12-08T15:14:55.605Z,4.53
2022-12-08T15:18:13.477Z,4.47
2022-12-08T15:21:17.864Z,4.43
2022-12-08T15:24:24.342Z,4.36
2022-12-08T15:27:27.442Z,4.26
2022-12-08T15:30:31.205Z,4.24
2022-12-08T15:33:33.919Z,4.22
2022-12-08T15:36:39.864Z,4.17
2022-12-08T15:39:42.873Z,4.08
2022-12-08T15:42:45.863Z,4.05
2022-12-08T15:45:58.324Z,4.05
2022-12-08T15:49:02.933Z,4.05
2022-12-08T15:52:12.056Z,3.95
2022-12-08T15:55:16.029Z,3.98
2022-12-08T16:01:44.820Z,4.01
2022-12-08T16:05:33.367Z,4.05
2022-12-08T16:08:38.293Z,4.06
2022-12-08T16:12:06.528Z,4.06
2022-12-08T16:18:37.881Z,4.01
2022-12-08T16:22:29.888Z,4.06
2022-12-08T16:25:22.431Z,4.06
2022-12-08T16:28:55.049Z,3.99
2022-12-08T16:31:49.350Z,3.91
2022-12-08T16:34:53.109Z,3.88
2022-12-08T16:37:56.122Z,3.87
2022-12-08T16:41:17.743Z,3.80
2022-12-08T16:44:20.782Z,3.73
2022-12-08T16:47:23.524Z,3.73
2022-12-08T16:50:28.250Z,3.71
2022-12-08T16:53:31.184Z,3.66
2022-12-08T16:56:35.456Z,3.64
2022-12-08T16:59:39.258Z,3.66
2022-12-08T17:02:42.314Z,3.62
2022-12-08T17:05:45.450Z,3.62
2022-12-08T17:08:48.277Z,3.66
2022-12-08T17:11:52.755Z,3.65
2022-12-08T17:14:55.528Z,3.55
2022-12-08T17:17:58.588Z,3.54
2022-12-08T17:21:01.434Z,3.55
2022-12-08T17:24:04.608Z,3.55
2022-12-08T17:27:08.784Z,3.52
2022-12-08T17:30:15.832Z,3.51
2022-12-08T17:33:26.616Z,3.48
2022-12-08T17:36:30.464Z,3.41
2022-12-08T17:39:33.400Z,3.31
2022-12-08T17:42:38.725Z,3.30
2022-12-08T17:45:42.746Z,3.25
2022-12-08T17:48:45.612Z,3.22
2022-12-08T17:51:49.277Z,3.19
2022-12-08T17:54:52.181Z,3.18
2022-12-08T17:57:56.500Z,3.11
2022-12-08T18:00:59.456Z,3.10
2022-12-08T18:04:03.205Z,3.06
2022-12-08T18:07:06.182Z,3.06
2022-12-08T18:10:09.525Z,3.02
2022-12-08T18:13:13.830Z,2.98
2022-12-08T18:16:17.663Z,2.98
2022-12-08T18:19:20.501Z,2.93
2022-12-08T18:22:23.236Z,2.96
2022-12-08T18:25:26.076Z,3.03
2022-12-08T18:28:33.417Z,3.07
2022-12-08T18:31:36.561Z,3.04
2022-12-08T18:34:39.480Z,3.03
2022-12-08T18:37:42.977Z,3.03
2022-12-08T18:40:48.443Z,3.02
2022-12-08T18:43:53.436Z,3.06
2022-12-08T18:46:56.466Z,3.08
2022-12-08T18:49:59.311Z,3.07
2022-12-08T18:53:02.079Z,3.05
2022-12-08T18:56:05.738Z,3.06
2022-12-08T18:59:12.555Z,2.93
2022-12-08T19:02:15.868Z,2.82
2022-12-08T19:05:18.955Z,2.74
2022-12-08T19:08:24.379Z,2.74
2022-12-08T19:11:30.972Z,2.73
2022-12-08T19:14:35.543Z,2.69
2022-12-08T19:17:40.672Z,2.68
2022-12-08T19:20:43.717Z,2.63
2022-12-08T19:23:47.684Z,2.61
2022-12-08T19:26:51.177Z,2.59
2022-12-08T19:29:56.369Z,2.49
2022-12-08T19:32:59.306Z,2.42
2022-12-08T19:36:07.628Z,2.41
2022-12-08T19:39:33.057Z,2.38
2022-12-08T19:42:54.122Z,2.26
2022-12-08T19:45:58.816Z,2.20
2022-12-08T19:49:01.683Z,2.18
2022-12-08T19:52:04.599Z,2.15
2022-12-08T19:55:08.065Z,2.07
2022-12-08T19:58:12.276Z,1.97
2022-12-08T20:01:17.405Z,1.91
2022-12-08T20:04:20.381Z,1.95
2022-12-08T20:07:23.633Z,1.86
2022-12-08T20:10:29.437Z,1.77
2022-12-08T20:13:45.939Z,1.70
2022-12-08T20:16:53.002Z,1.67
2022-12-08T20:19:55.896Z,1.61
2022-12-08T20:22:58.866Z,1.55
2022-12-08T20:26:05.651Z,1.57
2022-12-08T20:29:08.600Z,1.51
2022-12-08T20:32:14.771Z,1.50
2022-12-08T20:35:17.816Z,1.52
2022-12-08T20:38:20.650Z,1.42
2022-12-08T20:41:24.367Z,1.35
2022-12-08T20:44:28.590Z,1.31
2022-12-08T20:47:32.946Z,1.35
2022-12-08T20:50:35.904Z,1.35
2022-12-08T20:53:39.143Z,1.40
2022-12-08T20:56:48.041Z,1.30
2022-12-08T20:59:51.430Z,1.27
2022-12-08T21:02:57.100Z,1.27
2022-12-08T21:06:01.005Z,1.28
2022-12-08T21:09:03.954Z,1.18
2022-12-08T21:12:07.341Z,1.15
2022-12-08T21:15:12.546Z,1.15
2022-12-08T21:18:18.004Z,1.08
2022-12-08T21:21:21.097Z,1.06
2022-12-08T21:24:28.828Z,1.02
2022-12-08T21:27:35.444Z,0.91
2022-12-08T21:30:40.109Z,0.85
2022-12-08T21:33:44.540Z,0.84
2022-12-08T21:36:47.584Z,0.76
2022-12-08T21:39:50.600Z,0.72
2022-12-08T21:42:54.219Z,0.72
2022-12-08T21:45:57.352Z,0.70
2022-12-08T21:49:01.805Z,0.63
2022-12-08T21:52:04.950Z,0.54
2022-12-08T21:55:09.099Z,0.53
2022-12-08T21:58:12.204Z,0.59
2022-12-08T22:01:15.289Z,0.51
2022-12-08T22:04:21.530Z,0.51
2022-12-08T22:07:24.766Z,0.35
2022-12-08T22:10:27.716Z,0.44
2022-12-08T22:13:30.657Z,0.38
2022-12-08T22:16:33.585Z,0.26
2022-12-08T22:19:38.190Z,0.14
2022-12-08T22:22:41.962Z,0.14
2022-12-08T22:25:49.235Z,0.13
2022-12-08T22:28:52.324Z,0.12
2022-12-08T22:31:55.336Z,0.04
2022-12-08T22:34:59.556Z,0.02
2022-12-08T22:38:02.599Z,-0.08
2022-12-08T22:41:05.786Z,-0.09
2022-12-08T22:44:09.173Z,-0.11
2022-12-08T22:47:12.115Z,-0.18
2022-12-08T22:50:16.810Z,-0.22
2022-12-08T22:53:25.432Z,-0.16
2022-12-08T22:56:40.351Z,-0.21
2022-12-08T22:59:45.231Z,-0.24
2022-12-08T23:02:48.189Z,-0.26
2022-12-08T23:05:52.679Z,-0.29
2022-12-08T23:08:56.090Z,-0.39
2022-12-08T23:11:59.570Z,-0.39
2022-12-08T23:15:02.957Z,-0.36
2022-12-08T23:18:06.321Z,-0.39
2022-12-08T23:21:13.841Z,-0.47
2022-12-08T23:24:16.824Z,-0.56
2022-12-08T23:27:19.626Z,-0.60
2022-12-08T23:30:22.726Z,-0.57
2022-12-08T23:33:25.601Z,-0.56
2022-12-08T23:36:29.862Z,-0.67
2022-12-08T23:39:32.989Z,-0.76
2022-12-08T23:42:36.102Z,-0.77
2022-12-08T23:45:38.926Z,-0.83
2022-12-08T23:48:41.849Z,-0.81
2022-12-08T23:51:46.154Z,-0.87
2022-12-08T23:54:50.746Z,-0.93
2022-12-08T23:57:53.521Z,-0.92
